CZ-0057 weather

Vodňany Airstrip
South Bohemian Region, Czech Republic

Public forecast

Using degrees Celsius for public forecast. Weather courtesy of forecast.io.

Closest aviation weather report (METAR) to Vodňany Airstrip

Closest report is Plzeň-Líně Airport, 48.1 nm (89.0 km) NW. Retrieved 2020/02/18 15:00 UTC (36 minutes ago):

LKLN 181500Z AUTO 28006KT 180V340 9999 SCT030 BKN042 BKN055 06/01 Q1024

Closest aviation forecast (TAF) to Vodňany Airstrip

Closest forecast is Linz Hörsching Airport, 53.7 nm (99.5 km) S. Retrieved 2020/02/18 12:21 UTC (3 hours ago):

TAF LOWL 181115Z 1812/1912 26010KT 9999 SCT060 TX10/1813Z TN00/1906Z TEMPO 1812/1814 28020G30KT BECMG 1816/1818 25004KT BECMG 1910/1912 27010KT -RA BKN030